Latest Coastal Weather Observations for Cape Wessel

IDD60701

Issued at 6:21 pm CST Saturday 13 April 2024 (issued every 10 minutes, with the page automatically refreshed every 10 minutes)

About coastal observations | Map of coastal stations | Coastal observations for NT | Marine services | Other Formats
Station Details ID: 200786 Name: CAPE WESSEL Lat: -11.00 Lon: 136.76 Height: 18.0 m
Data from the previous 72 hours. | See also: Recent months at Cape Wessel
Date/Time
CST
Wind Sea
Height
m
Swell Vis
km
Cloud Weather Temp
°C
Press
MSL
hPa
Rain since
9am
mm
Dir  Spd
kts
Gust
kts
Height
m
Period
s
Dir
13/06:00pm E 13 15 - - - - - - - 28.1 1010.9 11.8
13/05:30pm E 13 16 - - - - - - - 28.3 1010.7 11.8
13/05:00pm E 13 15 - - - - - - - 28.4 1010.4 11.8
13/04:30pm E 13 16 - - - - - - - 28.1 1010.2 11.8
13/04:00pm E 13 18 - - - - - - - 28.1 1010.1 11.8
13/03:30pm E 15 18 - - - - - - - 28.3 1009.9 11.8
13/03:00pm E 15 19 - - - - - - - 28.5 1010.0 11.8
13/02:30pm E 16 19 - - - - - - - 28.0 1010.1 11.8
13/02:00pm NNE 12 16 - - - - - - - 26.6 1010.5 11.8
13/01:30pm E 16 20 - - - - - - - 27.3 1010.7 11.8
13/01:00pm E 17 21 - - - - - - - 26.7 1010.9 11.8
13/12:30pm E 18 23 - - - - - - - 26.3 1011.1 11.8
13/12:00pm E 14 21 - - - - - - Rain 25.5 1011.8 11.4
13/11:32am ENE 17 29 - - - - - - - 26.1 1012.0 2.2
13/11:30am ENE 15 24 - - - - - - - 26.1 1012.1 2.2
13/11:00am E 11 15 - - - - - - - 26.5 1012.4 2.0
13/10:30am ENE 14 18 - - - - - - - 26.0 1012.7 1.8
13/10:00am ENE 18 24 - - - - - - - 26.1 1012.6 1.6
13/09:30am NE 11 15 - - - - - - - 26.0 1012.6 0.6
13/09:00am ENE 6 7 - - - - - - Rain 25.5 1012.3 118.6
13/08:30am ENE 16 21 - - - - - - - 25.1 1012.2 114.4
13/08:00am ENE 14 17 - - - - - - - 25.1 1011.8 111.2
13/07:30am ENE 15 19 - - - - - - - 25.3 1011.7 109.6
13/07:00am ENE 21 27 - - - - - - - 25.2 1011.2 106.8
13/06:30am NE 22 27 - - - - - - - 25.5 1010.6 101.6
13/06:00am NE 17 22 - - - - - - Rain 26.3 1010.2 101.0
13/05:30am ENE 20 25 - - - - - - - 26.1 1009.5 100.8
13/05:00am ENE 14 24 - - - - - - - 26.6 1009.3 100.8
13/04:30am E 15 19 - - - - - - - 27.5 1009.1 100.0
13/04:00am E 15 19 - - - - - - - 27.5 1009.1 100.0
13/03:30am E 17 21 - - - - - - - 27.3 1009.0 100.0
13/03:00am E 17 22 - - - - - - - 27.4 1009.2 100.0
13/02:30am E 16 19 - - - - - - - 27.1 1009.3 100.0
13/02:00am E 15 20 - - - - - - - 27.2 1009.3 100.0
13/01:30am E 17 21 - - - - - - - 26.9 1009.6 100.0
13/01:00am E 17 21 - - - - - - - 26.8 1009.7 100.0
13/12:30am E 15 18 - - - - - - - 26.8 1009.7 100.0
13/12:00am ESE 15 18 - - - - - - - 26.7 1010.0 100.0
 
Date/Time
CST
Wind Sea
Height
m
Swell Vis
km
Cloud Weather Temp
°C
Press
MSL
hPa
Rain since
9am
mm
Dir  Spd
kts
Gust
kts
Height
m
Period
s
Dir
12/11:30pm ESE 14 16 - - - - - - - 26.4 1010.1 100.0
12/11:00pm E 13 17 - - - - - - - 26.0 1010.5 100.0
12/10:30pm E 14 17 - - - - - - - 25.8 1010.6 99.8
12/10:00pm E 11 14 - - - - - - - 25.7 1010.7 99.6
12/09:30pm E 12 15 - - - - - - - 25.6 1011.0 99.6
12/09:00pm E 14 16 - - - - - - Recent precip. 25.6 1011.0 99.6
12/08:30pm E 13 16 - - - - - - - 25.5 1011.0 99.4
12/08:00pm ENE 9 12 - - - - - - - 25.7 1010.8 99.2
12/07:30pm ENE 9 11 - - - - - - - 25.5 1010.8 99.0
12/07:00pm E 11 16 - - - - - - - 25.5 1010.6 99.0
12/06:30pm NE 9 11 - - - - - - - 25.2 1010.2 99.0
12/06:00pm NNE 8 11 - - - - - - Recent precip. 25.0 1009.4 98.8
12/05:30pm NNE 9 12 - - - - - - - 24.7 1009.2 98.6
12/05:00pm N 9 12 - - - - - - - 24.8 1008.9 97.4
12/04:30pm NNE 11 14 - - - - - - - 25.1 1008.7 94.2
12/04:00pm N 13 19 - - - - - - - 25.0 1008.1 89.6
12/03:50pm NE 10 21 - - - - - - - 25.6 1007.9 88.8
12/03:30pm N 4 6 - - - - - - - 25.1 1008.3 88.4
12/03:00pm NNE 12 15 - - - - - - Rain 25.1 1008.4 82.8
12/02:30pm NE 9 11 - - - - - - - 24.9 1008.2 78.0
12/02:00pm SSE 3 7 - - - - - - - 25.0 1008.2 72.4
12/01:30pm ESE 11 15 - - - - - - - 25.7 1008.9 52.4
12/01:00pm NNE 8 11 - - - - - - - 25.6 1008.9 24.0
12/12:30pm NNE 7 12 - - - - - - - 26.5 1008.7 4.4
12/12:00pm NE 6 7 - - - - - - Rain 27.8 1009.0 2.0
12/11:30am N 6 13 - - - - - - - 28.0 1009.3 1.6
12/11:00am NE 7 10 - - - - - - - 29.0 1009.9 0.0
12/10:30am ENE 7 10 - - - - - - - 30.5 1010.0 0.0
12/10:00am ENE 9 12 - - - - - - - 29.9 1010.2 0.0
12/09:30am NE 9 11 - - - - - - - 28.8 1010.0 0.0
12/09:00am ENE 11 14 - - - - - - Recent precip. 27.8 1010.1 54.4
12/08:30am NE 15 19 - - - - - - - 26.7 1009.6 54.4
12/08:00am NE 15 19 - - - - - - - 27.5 1009.2 54.2
12/07:30am ENE 15 21 - - - - - - - 26.8 1008.8 54.0
12/07:00am NE 14 19 - - - - - - - 26.6 1008.7 54.0
12/06:41am ENE 18 26 - - - - - - - 26.4 1008.7 53.4
12/06:30am E 18 23 - - - - - - - 27.2 1008.6 52.0
12/06:00am NE 16 21 - - - - - - - 27.8 1008.0 51.8
12/05:30am ENE 15 20 - - - - - - - 28.0 1007.5 51.8
12/05:00am ENE 17 21 - - - - - - - 27.9 1007.2 51.8
12/04:30am ENE 16 20 - - - - - - - 27.7 1007.2 51.8
12/04:00am ENE 14 19 - - - - - - - 27.8 1007.1 51.8
12/03:30am ENE 17 23 - - - - - - - 27.0 1007.1 51.8
12/03:00am ENE 19 25 - - - - - - - 27.0 1007.5 51.8
12/02:30am ENE 18 24 - - - - - - - 27.7 1007.7 51.8
12/02:00am ENE 16 23 - - - - - - - 27.8 1007.7 51.8
12/01:30am ENE 15 19 - - - - - - - 27.8 1007.8 51.8
12/01:00am ENE 16 21 - - - - - - - 28.0 1008.2 51.8
12/12:30am E 17 20 - - - - - - - 28.2 1008.3 51.8
12/12:00am E 16 21 - - - - - - - 28.2 1008.5 51.8
 
Date/Time
CST
Wind Sea
Height
m
Swell Vis
km
Cloud Weather Temp
°C
Press
MSL
hPa
Rain since
9am
mm
Dir  Spd
kts
Gust
kts
Height
m
Period
s
Dir
11/11:30pm E 17 22 - - - - - - - 28.2 1008.7 51.8
11/11:00pm E 15 19 - - - - - - - 28.1 1008.7 51.8
11/10:30pm E 16 19 - - - - - - - 28.1 1008.8 51.8
11/10:00pm ESE 17 21 - - - - - - - 27.8 1008.9 51.8
11/09:30pm ESE 15 18 - - - - - - - 28.3 1009.1 51.6
11/09:00pm ESE 13 16 - - - - - - - 28.1 1009.0 51.6
11/08:30pm ESE 14 17 - - - - - - - 28.0 1008.7 51.6
11/08:00pm ESE 14 17 - - - - - - - 27.8 1008.4 51.6
11/07:30pm ESE 13 18 - - - - - - - 27.6 1008.0 51.6
11/07:00pm ESE 13 16 - - - - - - - 27.5 1007.3 51.6
11/06:30pm ESE 11 14 - - - - - - - 27.3 1007.2 51.6
11/06:00pm SE 13 16 - - - - - - - 27.2 1007.2 51.6
11/05:30pm ESE 12 15 - - - - - - - 27.1 1007.2 51.6
11/05:00pm ESE 10 13 - - - - - - - 26.9 1007.1 51.6
11/04:30pm ESE 13 16 - - - - - - - 27.2 1007.0 51.4
11/04:00pm E 12 16 - - - - - - - 26.9 1006.6 50.8
11/03:30pm ENE 11 14 - - - - - - - 26.8 1006.4 50.6
11/03:00pm ENE 12 17 - - - - - - Rain 26.6 1006.7 50.6
11/02:30pm ENE 9 12 - - - - - - - 26.6 1007.0 50.2
11/02:00pm ENE 9 11 - - - - - - - 26.4 1007.5 50.0
11/01:30pm E 7 9 - - - - - - - 26.2 1008.0 48.6
11/01:00pm E 8 11 - - - - - - - 26.0 1008.7 46.8
11/12:30pm E 7 9 - - - - - - - 25.9 1009.2 43.6
11/12:00pm E 15 19 - - - - - - Rain 26.0 1010.0 41.4
11/11:30am ESE 15 20 - - - - - - - 26.2 1009.9 38.2
11/11:28am ESE 15 18 - - - - - - - 26.1 1009.9 37.8
11/11:14am SSW 7 21 - - - - - - - 25.7 1010.4 30.0
11/11:00am W 2 7 - - - - - - - 25.8 1010.4 26.6
11/10:30am WSW 4 6 - - - - - - - 25.7 1010.1 13.8
11/10:00am NNE 1 4 - - - - - - - 25.5 1009.8 10.8
11/09:30am NE 8 10 - - - - - - - 25.4 1009.7 8.8
11/09:00am NE 13 21 - - - - - - Rain 25.8 1009.7 18.0
11/08:57am ENE 9 21 - - - - - - - 25.7 1009.7 16.8
11/08:30am ESE 7 10 - - - - - - - 26.7 1009.2 15.0
11/08:00am SSE 8 12 - - - - - - - 26.4 1008.9 14.2
11/07:30am S 11 15 - - - - - - - 26.1 1008.6 14.2
11/07:00am SSE 14 20 - - - - - - - 26.4 1008.5 10.4
11/06:30am SE 14 17 - - - - - - - 26.3 1008.2 8.4
11/06:00am SE 17 21 - - - - - - Recent precip. 26.2 1007.9 8.4
11/05:30am SSE 18 23 - - - - - - - 26.3 1007.4 7.2
11/05:00am SSE 14 23 - - - - - - - 26.4 1007.2 5.8
11/04:30am S 19 23 - - - - - - - 26.0 1007.2 4.6
11/04:00am S 13 17 - - - - - - - 26.2 1007.4 4.6
11/03:30am S 14 18 - - - - - - - 26.6 1007.4 4.2
11/03:05am SSE 20 30 - - - - - - - 26.1 1007.6 3.0
11/03:00am SSE 23 30 - - - - - - Rain 26.0 1007.7 2.4
11/02:30am S 17 23 - - - - - - - 28.4 1007.7 0.0
11/02:00am S 15 20 - - - - - - - 28.5 1008.0 0.0
11/01:30am S 16 21 - - - - - - - 28.4 1008.4 0.0
11/01:00am SSE 17 21 - - - - - - - 28.5 1008.6 0.0
11/12:30am SSE 19 24 - - - - - - - 28.7 1008.9 0.0
11/12:00am SSE 19 24 - - - - - - - 28.7 1009.4 0.0
 
Date/Time
CST
Wind Sea
Height
m
Swell Vis
km
Cloud Weather Temp
°C
Press
MSL
hPa
Rain since
9am
mm
Dir  Spd
kts
Gust
kts
Height
m
Period
s
Dir
10/11:30pm SSE 20 26 - - - - - - - 28.7 1009.7 0.0
10/11:00pm SSE 21 28 - - - - - - - 28.7 1009.6 0.0
10/10:30pm SSE 20 27 - - - - - - - 28.7 1009.9 0.0
10/10:00pm SSE 20 24 - - - - - - - 28.8 1010.0 0.0
10/09:30pm SSE 21 26 - - - - - - - 28.9 1009.9 0.0
10/09:00pm SSE 21 25 - - - - - - - 28.9 1009.8 0.0
10/08:30pm SSE 22 26 - - - - - - - 28.9 1009.4 0.0
10/08:00pm SSE 22 26 - - - - - - - 29.0 1008.9 0.0
10/07:30pm SSE 20 26 - - - - - - - 29.0 1008.6 0.0
10/07:00pm SSE 20 25 - - - - - - - 29.1 1008.3 0.0
10/06:30pm SSE 21 26 - - - - - - - 28.9 1007.9 0.0

Other formats

Comma delimited format used in spreadsheet applications
http://www.bom.gov.au/fwo/IDD60701/IDD60701.94147.axf

JavaScript Object Notation format (JSON) in row-major order
http://www.bom.gov.au/fwo/IDD60701/IDD60701.94147.json

Data quality

Most of these data are generated automatically and are frequently updated. Quality checks on data are not normally performed. It is possible for incorrect values to appear. Refer to information at About Latest Weather Observations and please check the disclaimer before using these data.